Time;durP1;ratioP1;P1;durP2;ratioP2;P2;SDS_P1;SDS_P2;PMS_P1;PMS_P2;Temp;Humidity;BMP_temperature;BMP_pressure;BME280_temperature;BME280_humidity;BME280_pressure;Samples;Min_cycle;Max_cycle;Signal;HPM_P1;HPM_P2
2022/06/07 00:02:29;;;;;;;14.35;9.35;;;;;;;17.57;81.67;98958.37;4086587;86;21029;-85
2022/06/07 00:08:31;;;;;;;11.97;8.90;;;;;;;17.43;82.06;98962.73;4089276;86;21128;-85
2022/06/07 00:14:36;;;;;;;15.72;9.20;;;;;;;17.32;82.53;98956.59;4088454;86;21790;-85
2022/06/07 00:20:44;;;;;;;13.78;8.23;;;;;;;17.35;82.72;98952.22;4009448;86;21074;-85
2022/06/07 00:26:49;;;;;;;9.95;6.92;;;;;;;17.38;82.83;98956.91;4081911;86;21582;-84
2022/06/07 00:32:50;;;;;;;11.10;8.43;;;;;;;17.32;82.91;98948.91;3987200;88;21076;-84
2022/06/07 00:39:14;;;;;;;17.20;8.08;;;;;;;17.19;83.08;98941.19;4118326;84;21089;-84
2022/06/07 00:45:27;;;;;;;12.07;9.05;;;;;;;17.03;83.43;98934.75;4131843;85;20999;-83
2022/06/07 00:51:48;;;;;;;16.12;10.90;;;;;;;16.85;83.67;98938.41;4011787;87;21029;-84
2022/06/07 00:58:01;;;;;;;14.25;9.25;;;;;;;16.69;84.13;98929.35;4007315;87;21173;-85
2022/06/07 01:04:12;;;;;;;18.00;9.50;;;;;;;16.64;84.57;98933.16;3990988;87;21244;-84
2022/06/07 01:10:46;;;;;;;14.40;9.10;;;;;;;16.60;84.54;98927.69;4000661;87;21084;-84
2022/06/07 01:17:16;;;;;;;14.05;10.25;;;;;;;16.53;84.54;98929.77;4164408;85;21089;-84
2022/06/07 01:23:44;;;;;;;12.18;8.20;;;;;;;16.52;84.71;98928.98;4138754;85;21109;-85
2022/06/07 01:29:53;;;;;;;16.60;9.25;;;;;;;16.57;85.04;98929.90;4128465;84;21038;-84
2022/06/07 01:36:13;;;;;;;11.03;8.98;;;;;;;16.53;84.92;98923.66;4146250;85;21070;-84
2022/06/07 01:42:25;;;;;;;16.40;10.78;;;;;;;16.36;84.99;98916.36;4142292;85;21096;-84
2022/06/07 01:48:39;;;;;;;18.65;10.85;;;;;;;16.11;85.29;98909.58;4130905;85;21151;-85
2022/06/07 01:54:45;;;;;;;14.47;9.75;;;;;;;15.91;85.38;98904.50;4129021;85;21493;-84
2022/06/07 02:00:46;;;;;;;14.85;10.70;;;;;;;15.74;86.00;98906.87;4138628;84;21092;-84
2022/06/07 02:06:50;;;;;;;16.15;11.50;;;;;;;15.57;86.14;98897.56;4136440;85;21096;-84
2022/06/07 02:13:01;;;;;;;18.35;8.93;;;;;;;15.45;86.65;98898.88;4057175;86;21060;-84
2022/06/07 02:19:09;;;;;;;13.95;10.48;;;;;;;15.55;87.20;98906.25;4050313;86;21553;-84
2022/06/07 02:25:21;;;;;;;15.28;10.78;;;;;;;15.58;86.80;98895.78;4134232;85;21137;-84
2022/06/07 02:31:32;;;;;;;16.57;10.90;;;;;;;15.39;86.92;98890.08;4137836;83;21065;-84
2022/06/07 02:37:43;;;;;;;13.18;8.93;;;;;;;15.30;87.32;98891.13;4123944;85;21009;-84
2022/06/07 02:50:42;;;;;;;9.20;6.30;;;;;;;15.31;87.71;98887.17;4143022;84;21064;-83
2022/06/07 02:56:44;;;;;;;14.23;8.68;;;;;;;15.39;87.82;98891.45;4131510;84;21061;-84
2022/06/07 03:02:50;;;;;;;14.05;10.40;;;;;;;15.47;87.73;98894.34;4142199;85;21111;-84
2022/06/07 03:09:13;;;;;;;11.80;9.25;;;;;;;15.39;87.40;98892.22;4149081;84;21055;-84
2022/06/07 03:15:23;;;;;;;14.90;10.20;;;;;;;15.24;87.79;98887.22;4072381;86;21728;-83
2022/06/07 03:21:28;;;;;;;12.45;9.93;;;;;;;15.15;87.77;98891.84;4168602;85;21040;-84
2022/06/07 03:27:32;;;;;;;13.62;9.63;;;;;;;14.99;88.02;98901.23;4100751;85;24147;-85
2022/06/07 03:33:50;;;;;;;14.03;9.63;;;;;;;15.09;88.55;98894.06;4159259;84;21673;-84
2022/06/07 03:39:53;;;;;;;13.38;10.50;;;;;;;15.15;88.81;98892.43;4069649;86;21073;-84
2022/06/07 03:46:18;;;;;;;16.37;9.88;;;;;;;15.21;89.04;98892.17;4036113;87;21066;-84
2022/06/07 03:52:58;;;;;;;14.05;10.90;;;;;;;15.19;89.33;98887.69;4103471;85;21117;-84
2022/06/07 03:59:29;;;;;;;13.40;10.20;;;;;;;15.28;89.76;98886.02;4174686;84;21624;-84
2022/06/07 04:05:51;;;;;;;12.60;9.68;;;;;;;15.37;90.23;98890.45;3999142;87;21826;-84
2022/06/07 04:12:12;;;;;;;14.35;10.05;;;;;;;15.55;90.39;98889.70;4025881;85;21022;-84
2022/06/07 04:18:18;;;;;;;12.35;8.83;;;;;;;15.83;90.43;98881.72;4101359;87;21056;-84
2022/06/07 04:30:50;;;;;;;13.10;10.05;;;;;;;16.29;90.12;98868.69;4120595;84;21024;-84
2022/06/07 04:37:12;;;;;;;14.50;10.15;;;;;;;16.52;89.80;98873.71;4157524;84;21037;-85
2022/06/07 04:44:07;;;;;;;13.78;10.35;;;;;;;16.71;89.68;98879.19;4165376;84;21065;-85
2022/06/07 04:50:47;;;;;;;16.90;10.23;;;;;;;16.85;89.72;98873.44;4171700;84;21068;-85
2022/06/07 04:57:03;;;;;;;14.73;10.58;;;;;;;16.99;89.59;98877.34;4205858;84;20984;-85
2022/06/07 05:03:23;;;;;;;11.75;9.10;;;;;;;17.14;89.59;98878.66;4167115;84;21040;-85
2022/06/07 05:09:39;;;;;;;16.32;9.43;;;;;;;17.32;89.85;98879.13;4196489;83;21048;-86
2022/06/07 05:16:15;;;;;;;10.78;8.20;;;;;;;17.49;89.89;98874.52;4097633;87;21079;-86
2022/06/07 05:22:53;;;;;;;8.33;6.53;;;;;;;17.75;90.09;98878.56;4162421;84;21100;-85
2022/06/07 05:35:29;;;;;;;8.43;6.60;;;;;;;18.39;89.53;98889.91;4166915;84;21106;-86
2022/06/07 05:41:57;;;;;;;7.12;5.70;;;;;;;18.69;89.17;98888.84;4165822;84;21074;-86
2022/06/07 05:47:59;;;;;;;5.92;4.67;;;;;;;18.94;89.09;98889.64;4172424;84;21691;-86
2022/06/07 05:54:01;;;;;;;7.60;5.80;;;;;;;19.05;88.67;98891.55;4152760;84;21089;-86
2022/06/07 06:00:04;;;;;;;6.12;5.50;;;;;;;19.21;88.16;98895.11;4147655;84;21051;-87
2022/06/07 06:06:31;;;;;;;5.75;5.10;;;;;;;19.45;86.97;98886.02;4091192;85;21058;-86
2022/06/07 06:12:48;;;;;;;;;;;;;;;19.68;87.03;98883.80;4093306;85;21681;-87
2022/06/07 06:18:54;;;;;;;;;;;;;;;19.91;85.90;98884.14;4080545;85;20115;-87
2022/06/07 06:24:56;;;;;;;6.08;4.37;;;;;;;20.10;85.46;98879.82;4082883;85;20125;-85
2022/06/07 06:31:03;;;;;;;8.88;5.00;;;;;;;20.31;84.96;98885.41;4155156;84;21024;-86
2022/06/07 06:37:06;;;;;;;7.80;4.35;;;;;;;20.57;84.60;98875.86;4173872;84;21023;-85
2022/06/07 06:43:12;;;;;;;7.30;4.78;;;;;;;20.83;84.35;98862.73;4171689;84;21083;-87
2022/06/07 06:49:20;;;;;;;9.63;4.80;;;;;;;21.13;83.89;98867.11;4168320;84;21628;-87
2022/06/07 06:55:22;;;;;;;7.37;4.17;;;;;;;21.62;83.02;98857.66;4097589;85;21090;-87
2022/06/07 07:01:31;;;;;;;7.83;4.30;;;;;;;22.20;82.66;98856.55;4087498;85;21094;-87
2022/06/07 07:07:35;;;;;;;7.47;3.67;;;;;;;22.99;81.16;98849.02;4104858;85;22212;-88
2022/06/07 07:13:38;;;;;;;3.52;2.80;;;;;;;23.81;80.09;98857.51;4170502;84;21090;-88
2022/06/07 07:19:40;;;;;;;4.33;3.22;;;;;;;24.26;77.74;98854.67;4168093;84;21056;-88
2022/06/07 07:25:43;;;;;;;4.53;3.20;;;;;;;25.07;76.85;98852.20;4163917;84;21013;-88
2022/06/07 07:31:45;;;;;;;10.28;4.35;;;;;;;25.43;74.75;98843.59;4164939;84;21064;-88
2022/06/07 07:37:47;;;;;;;5.28;3.70;;;;;;;25.65;73.49;98835.64;4161138;84;21131;-88
2022/06/07 07:43:55;;;;;;;3.52;3.00;;;;;;;25.96;72.59;98834.58;4172643;84;21063;-87
2022/06/07 07:49:57;;;;;;;4.92;4.15;;;;;;;25.94;71.14;98833.66;4166599;84;21111;-87
2022/06/07 07:56:00;;;;;;;2.60;2.40;;;;;;;25.52;64.74;98819.70;4171966;84;21055;-87
2022/06/07 08:02:03;;;;;;;3.08;2.60;;;;;;;25.35;65.98;98834.78;4177866;84;21036;-87
2022/06/07 08:08:06;;;;;;;3.10;2.90;;;;;;;25.35;60.89;98815.79;4164604;84;21088;-86
2022/06/07 08:14:14;;;;;;;2.65;2.25;;;;;;;25.24;62.04;98817.71;4094026;85;21047;-86
2022/06/07 08:20:16;;;;;;;3.87;2.02;;;;;;;25.54;61.97;98811.59;4162390;84;21473;-87
2022/06/07 08:26:18;;;;;;;2.20;1.87;;;;;;;25.69;61.29;98813.17;4169292;84;21030;-87
2022/06/07 08:32:19;;;;;;;3.42;2.20;;;;;;;25.80;60.78;98809.17;4167253;84;21152;-86
2022/06/07 08:38:21;;;;;;;1.82;1.62;;;;;;;25.66;59.54;98802.92;4160925;84;21703;-88
2022/06/07 08:44:39;;;;;;;2.10;1.67;;;;;;;25.82;59.36;98798.27;4081134;85;21674;-88
2022/06/07 08:51:01;;;;;;;2.42;1.90;;;;;;;25.87;58.76;98791.95;4092902;85;21034;-87
2022/06/07 08:57:23;;;;;;;2.00;1.80;;;;;;;26.03;58.72;98786.53;4093674;85;21194;-85
2022/06/07 09:03:55;;;;;;;3.33;1.70;;;;;;;26.28;58.36;98785.93;4165716;84;21141;-86
2022/06/07 09:16:17;;;;;;;3.47;1.67;;;;;;;26.20;55.15;98775.61;4175316;84;21044;-85
2022/06/07 09:22:29;;;;;;;4.45;1.87;;;;;;;26.31;55.18;98775.14;4135042;84;35498;-87
2022/06/07 09:28:30;;;;;;;3.35;1.90;;;;;;;26.42;52.26;98768.30;4114285;85;22009;-86
2022/06/07 09:34:31;;;;;;;4.87;2.05;;;;;;;26.96;53.61;98766.20;4118682;85;21678;-86
2022/06/07 09:40:39;;;;;;;2.25;1.90;;;;;;;27.02;53.01;98760.02;4124088;85;21043;-86
2022/06/07 09:46:43;;;;;;;2.12;1.60;;;;;;;27.20;52.41;98755.50;4085160;85;21078;-85
2022/06/07 09:52:56;;;;;;;3.55;1.70;;;;;;;27.55;49.61;98751.98;4112248;85;21040;-86
2022/06/07 09:59:08;;;;;;;3.67;1.45;;;;;;;27.98;50.20;98742.33;4109139;85;21086;-87
2022/06/07 10:05:27;;;;;;;2.50;1.70;;;;;;;28.40;48.54;98738.19;4102211;85;21068;-89
2022/06/07 10:12:04;;;;;;;2.65;1.85;;;;;;;28.67;46.61;98721.52;4110906;85;21673;-86
2022/06/07 10:18:32;;;;;;;2.30;1.98;;;;;;;28.62;48.11;98720.84;4109259;85;21086;-87
2022/06/07 10:24:48;;;;;;;1.82;1.50;;;;;;;29.07;45.34;98708.42;4111125;85;21038;-87
2022/06/07 10:30:58;;;;;;;4.00;1.47;;;;;;;29.11;44.63;98702.67;4098437;85;21122;-85
2022/06/07 10:37:26;;;;;;;2.10;1.65;;;;;;;29.34;41.71;98688.77;4020925;87;21024;-86
2022/06/07 10:43:33;;;;;;;2.98;1.70;;;;;;;29.29;44.21;98678.23;4114174;85;22087;-87
2022/06/07 10:49:43;;;;;;;2.17;1.52;;;;;;;29.47;43.38;98675.59;4113460;85;21188;-86
2022/06/07 10:56:02;;;;;;;4.10;1.82;;;;;;;29.84;42.13;98664.88;4085361;85;21058;-88
2022/06/07 11:02:34;;;;;;;3.80;1.80;;;;;;;30.28;42.56;98661.42;4118186;85;21034;-87
2022/06/07 11:09:20;;;;;;;3.10;1.57;;;;;;;30.38;42.86;98654.19;4111253;85;20993;-86
2022/06/07 11:16:09;;;;;;;1.65;1.50;;;;;;;30.17;42.85;98651.52;4104597;85;21036;-87
2022/06/07 11:22:17;;;;;;;1.60;1.50;;;;;;;30.58;42.76;98639.64;4113946;85;21091;-88
2022/06/07 11:28:41;;;;;;;2.58;1.37;;;;;;;30.98;42.56;98635.52;4116624;85;20999;-87
2022/06/07 11:34:42;;;;;;;2.27;1.77;;;;;;;31.14;42.33;98633.88;4114489;85;21054;-88
2022/06/07 11:40:47;;;;;;;1.82;1.57;;;;;;;31.61;40.95;98623.45;4109110;85;21549;-86
2022/06/07 11:46:57;;;;;;;1.70;1.57;;;;;;;31.37;37.69;98619.11;4106183;85;21042;-87
2022/06/07 11:53:25;;;;;;;1.82;1.50;;;;;;;31.86;39.45;98612.33;4119435;85;21161;-88
2022/06/07 11:59:49;;;;;;;4.03;1.70;;;;;;;32.12;39.13;98601.16;4116938;85;21165;-88
2022/06/07 12:05:55;;;;;;;2.58;1.62;;;;;;;31.87;37.26;98586.22;4108634;85;21023;-87
2022/06/07 12:11:57;;;;;;;2.02;1.82;;;;;;;31.69;38.35;98584.02;4111067;85;21110;-88
2022/06/07 12:18:03;;;;;;;4.53;1.67;;;;;;;31.25;38.02;98585.75;4114465;85;21865;-88
2022/06/07 12:24:17;;;;;;;2.35;1.70;;;;;;;30.84;37.61;98575.85;4117408;85;21051;-86
2022/06/07 12:30:33;;;;;;;2.83;1.90;;;;;;;30.06;37.84;98565.45;4119835;85;22300;-86
2022/06/07 12:36:39;;;;;;;5.58;1.70;;;;;;;29.70;38.11;98559.48;4113213;85;21849;-88
2022/06/07 12:42:45;;;;;;;2.55;1.80;;;;;;;29.09;38.43;98554.45;4112100;85;21039;-86
2022/06/07 12:48:48;;;;;;;2.10;1.90;;;;;;;28.53;39.12;98543.66;4115544;85;21709;-87
2022/06/07 12:54:54;;;;;;;2.80;1.67;;;;;;;28.38;39.57;98540.86;4108074;85;21103;-87
2022/06/07 13:00:55;;;;;;;;;;;;;;;28.42;39.52;98526.70;4115336;85;21075;-88
2022/06/07 13:07:17;;;;;;;2.58;2.25;;;;;;;28.37;39.68;98529.48;4113634;85;20151;-86
2022/06/07 13:13:24;;;;;;;3.52;1.80;;;;;;;28.34;40.13;98522.05;4114242;85;21066;-86
2022/06/07 13:19:28;;;;;;;4.97;1.82;;;;;;;28.16;40.68;98520.44;4109389;85;21149;-87
2022/06/07 13:25:32;;;;;;;2.00;1.72;;;;;;;28.32;41.08;98517.55;4113942;85;21120;-87
2022/06/07 13:31:53;;;;;;;3.45;2.05;;;;;;;28.37;40.90;98503.52;4114650;85;21560;-87
2022/06/07 13:38:05;;;;;;;3.50;2.10;;;;;;;28.26;41.09;98496.44;4118146;85;21105;-85
2022/06/07 13:44:15;;;;;;;3.40;2.20;;;;;;;28.11;41.38;98484.59;4114343;85;21089;-86
2022/06/07 13:56:51;;;;;;;3.60;3.30;;;;;;;27.68;42.65;98485.11;4112234;85;21583;-86
2022/06/07 14:02:52;;;;;;;4.37;2.90;;;;;;;27.46;43.40;98497.77;4119103;85;21045;-87
2022/06/07 14:08:55;;;;;;;3.52;3.22;;;;;;;27.20;43.60;98498.41;4124350;85;21734;-88
2022/06/07 14:14:57;;;;;;;4.45;3.50;;;;;;;26.98;44.09;98480.61;4102706;85;21915;-87
2022/06/07 14:20:59;;;;;;;7.62;4.03;;;;;;;26.67;44.29;98490.40;4102369;85;21150;-86
2022/06/07 14:27:00;;;;;;;4.62;4.03;;;;;;;26.40;45.16;98503.46;4112824;85;21553;-86
2022/06/07 14:33:03;;;;;;;7.72;4.08;;;;;;;26.12;46.00;98508.75;4115783;85;21086;-86
2022/06/07 14:39:04;;;;;;;5.08;4.22;;;;;;;25.77;46.53;98505.17;3970388;88;21123;-84
2022/06/07 14:45:09;;;;;;;13.65;4.80;;;;;;;25.62;48.19;98515.67;4016388;86;21096;-86
2022/06/07 14:51:37;;;;;;;7.20;4.35;;;;;;;25.27;49.46;98510.00;4006738;86;22092;-85
2022/06/07 14:57:42;;;;;;;8.18;4.55;;;;;;;24.87;50.14;98500.66;4012246;86;21078;-84
2022/06/07 15:03:42;;;;;;;6.00;3.85;;;;;;;24.60;52.25;98496.83;3973847;87;21110;-87
2022/06/07 15:09:43;;;;;;;4.90;4.17;;;;;;;24.48;52.30;98498.50;4028930;86;21140;-84
2022/06/07 15:15:45;;;;;;;6.78;4.33;;;;;;;24.50;52.86;98501.59;4016451;86;21104;-87
2022/06/07 15:21:50;;;;;;;7.72;4.17;;;;;;;24.39;52.95;98490.98;4113188;85;21158;-88
2022/06/07 15:27:52;;;;;;;5.00;4.50;;;;;;;24.44;53.45;98488.13;4111761;85;21082;-87
2022/06/07 15:33:57;;;;;;;5.15;4.60;;;;;;;24.41;53.87;98488.48;4113889;85;21090;-87
2022/06/07 15:40:00;;;;;;;5.05;4.17;;;;;;;24.39;54.42;98481.19;3990404;87;21092;-88
2022/06/07 15:46:02;;;;;;;5.80;4.75;;;;;;;24.39;55.41;98488.18;3998949;86;21987;-88
2022/06/07 15:52:04;;;;;;;10.25;5.33;;;;;;;24.36;56.50;98493.34;4107216;85;21104;-88
2022/06/07 16:04:26;;;;;;;5.15;4.53;;;;;;;24.13;57.86;98477.34;4107376;85;21545;-87
2022/06/07 16:10:28;;;;;;;5.67;4.58;;;;;;;24.15;58.53;98472.70;4120188;85;21076;-87
2022/06/07 16:16:34;;;;;;;7.67;4.62;;;;;;;24.04;58.82;98463.44;4109815;85;21107;-87
2022/06/07 16:22:36;;;;;;;;;;;;;;;23.83;59.41;98451.94;4115247;85;21151;-87
2022/06/07 16:34:57;;;;;;;5.78;4.60;;;;;;;23.75;60.04;98449.34;4035498;87;21033;-88
2022/06/07 16:40:59;;;;;;;8.50;5.20;;;;;;;23.65;60.70;98445.70;4042490;87;21034;-87
2022/06/07 16:47:00;;;;;;;11.30;5.22;;;;;;;23.47;61.30;98448.58;4029020;86;21076;-87
2022/06/07 16:53:02;;;;;;;6.95;5.40;;;;;;;23.40;61.76;98459.48;4017443;86;21083;-87
2022/06/07 16:59:06;;;;;;;6.62;5.50;;;;;;;23.25;62.39;98467.01;4113679;85;22063;-88
2022/06/07 17:05:07;;;;;;;7.35;5.53;;;;;;;22.97;63.00;98481.64;4019689;86;21179;-88
2022/06/07 17:11:08;;;;;;;8.25;5.87;;;;;;;22.73;63.99;98489.77;4037556;87;21162;-88
2022/06/07 17:17:48;;;;;;;10.08;6.35;;;;;;;22.63;64.70;98493.84;4022634;86;21645;-87
2022/06/07 17:23:52;;;;;;;8.98;6.80;;;;;;;22.55;65.45;98494.00;4025905;86;22004;-87
2022/06/07 17:29:53;;;;;;;9.50;7.28;;;;;;;22.38;66.16;98496.30;4116722;85;21091;-88
2022/06/07 17:35:54;;;;;;;9.05;7.47;;;;;;;22.25;67.08;98507.45;4115894;85;20992;-87
2022/06/07 17:41:55;;;;;;;13.10;6.53;;;;;;;22.11;68.15;98529.76;4112759;85;21082;-86
2022/06/07 17:47:57;;;;;;;7.97;6.92;;;;;;;21.91;68.84;98536.36;4111781;85;21623;-86
2022/06/07 17:53:58;;;;;;;10.72;6.20;;;;;;;21.68;69.00;98539.69;4117384;85;21078;-87
2022/06/07 17:59:59;;;;;;;8.00;5.78;;;;;;;21.47;69.33;98558.02;4116860;85;20976;-86
2022/06/07 18:06:01;;;;;;;6.50;4.95;;;;;;;21.24;69.71;98553.58;4112699;85;21000;-86
2022/06/07 18:12:03;;;;;;;6.28;4.70;;;;;;;21.07;70.25;98544.69;4112470;85;22018;-87
2022/06/07 18:18:06;;;;;;;9.60;4.67;;;;;;;20.91;70.85;98553.21;4115973;85;21102;-85
2022/06/07 18:24:09;;;;;;;7.25;4.65;;;;;;;20.79;71.27;98563.02;4117304;85;21064;-86
2022/06/07 18:30:12;;;;;;;7.70;4.35;;;;;;;20.71;71.85;98563.11;4109451;85;21120;-86
2022/06/07 18:36:14;;;;;;;6.25;4.17;;;;;;;20.57;72.64;98566.41;4108239;85;21066;-88
2022/06/07 18:42:16;;;;;;;6.37;4.15;;;;;;;20.38;73.62;98575.21;4118006;85;21989;-88
2022/06/07 18:48:18;;;;;;;7.30;4.65;;;;;;;20.13;74.47;98589.97;4106727;85;21034;-86
2022/06/07 18:54:24;;;;;;;6.65;5.12;;;;;;;19.90;75.28;98596.48;4113523;85;21126;-88
2022/06/07 19:00:27;;;;;;;6.47;5.03;;;;;;;19.70;76.15;98590.39;4115609;85;21167;-88
2022/06/07 19:06:31;;;;;;;7.22;5.35;;;;;;;19.56;76.93;98591.59;4111108;85;21138;-87
2022/06/07 19:12:36;;;;;;;7.92;5.22;;;;;;;19.55;77.53;98596.98;4111526;85;21074;-88
2022/06/07 19:18:35;;;;;;;6.80;5.37;;;;;;;19.54;78.02;98607.15;4022850;86;21108;-87
2022/06/07 19:24:38;;;;;;;10.85;6.83;;;;;;;19.47;78.65;98615.68;4025098;86;21140;-87
2022/06/07 19:30:40;;;;;;;11.20;8.65;;;;;;;19.33;78.99;98608.57;4025057;86;21141;-87
2022/06/07 19:36:42;;;;;;;12.47;9.78;;;;;;;19.25;79.65;98616.91;3994602;85;9999900;-86
2022/06/07 19:42:43;;;;;;;8.93;7.75;;;;;;;19.05;79.87;98628.80;4112756;85;21022;-87
2022/06/07 19:48:45;;;;;;;11.93;8.25;;;;;;;18.97;80.81;98627.44;4034896;87;21700;-87
2022/06/07 19:54:47;;;;;;;10.35;8.58;;;;;;;18.99;81.40;98628.38;4023114;86;21103;-86
2022/06/07 20:00:50;;;;;;;11.22;9.08;;;;;;;19.02;81.92;98628.29;4017359;86;21966;-86
2022/06/07 20:06:52;;;;;;;12.07;8.45;;;;;;;19.01;82.13;98628.13;4109684;85;21064;-87
2022/06/07 20:12:53;;;;;;;12.05;8.85;;;;;;;18.84;82.17;98638.33;4109083;85;21091;-87
2022/06/07 20:18:55;;;;;;;13.60;8.25;;;;;;;18.75;83.09;98648.66;4112530;85;21138;-87
2022/06/07 20:24:57;;;;;;;11.20;7.95;;;;;;;18.70;83.48;98645.81;4113057;85;21117;-86
2022/06/07 20:31:01;;;;;;;8.95;7.70;;;;;;;18.60;83.88;98649.63;4112983;85;21923;-86
2022/06/07 20:37:04;;;;;;;10.28;7.05;;;;;;;18.55;84.20;98656.33;4112920;85;21031;-86
2022/06/07 20:43:08;;;;;;;8.88;7.97;;;;;;;18.54;84.87;98645.83;4037329;86;21049;-86
2022/06/07 20:49:09;;;;;;;12.70;8.35;;;;;;;18.54;85.23;98648.61;4040887;86;21111;-86
2022/06/07 20:55:12;;;;;;;14.28;10.55;;;;;;;18.53;85.65;98642.91;4038348;87;22348;-85
2022/06/07 21:01:58;;;;;;;12.80;9.48;;;;;;;18.51;86.05;98648.72;4038884;88;21011;-86
2022/06/07 21:14:35;;;;;;;14.63;8.75;;;;;;;18.44;86.55;98640.58;3991241;86;21037;-86
2022/06/07 21:20:40;;;;;;;22.15;9.75;;;;;;;18.33;87.02;98640.04;4023890;86;21073;-87
2022/06/07 21:26:41;;;;;;;11.50;10.23;;;;;;;18.29;87.49;98646.30;4022200;86;21213;-85
2022/06/07 21:32:42;;;;;;;20.77;10.82;;;;;;;18.23;87.61;98646.02;4013519;86;21076;-85
2022/06/07 21:38:44;;;;;;;11.08;9.93;;;;;;;18.23;88.02;98648.80;4034037;87;21070;-86
2022/06/07 21:44:47;;;;;;;15.35;10.55;;;;;;;18.18;88.37;98640.23;4045844;87;21137;-84
2022/06/07 21:51:06;;;;;;;16.87;11.88;;;;;;;18.14;88.53;98651.99;4122842;85;21049;-86
2022/06/07 21:57:07;;;;;;;15.30;12.90;;;;;;;18.15;88.80;98650.17;4114385;85;21441;-86
2022/06/07 22:03:22;;;;;;;17.35;14.63;;;;;;;18.11;89.19;98656.42;4110958;85;21041;-86
2022/06/07 22:09:24;;;;;;;24.43;20.02;;;;;;;18.08;89.51;98657.88;4107800;85;21123;-86
2022/06/07 22:15:33;;;;;;;24.95;20.90;;;;;;;18.01;89.81;98658.07;4115131;85;22064;-85
2022/06/07 22:21:39;;;;;;;22.82;19.90;;;;;;;17.91;89.90;98652.17;4111800;85;21015;-85
2022/06/07 22:28:01;;;;;;;23.40;19.23;;;;;;;17.93;90.47;98647.75;4114077;86;21972;-86
2022/06/07 22:34:14;;;;;;;24.02;19.40;;;;;;;17.86;90.49;98644.37;3977112;89;21974;-85
2022/06/07 23:00:54;;;;;;;24.35;19.52;;;;;;;17.83;91.53;98641.08;3840921;91;21201;-86
2022/06/07 23:07:00;;;;;;;20.57;18.37;;;;;;;17.77;91.84;98632.52;3838666;91;21070;-87
2022/06/07 23:13:01;;;;;;;27.82;19.73;;;;;;;17.73;92.24;98637.34;3899193;88;22128;-86
2022/06/07 23:19:02;;;;;;;22.93;19.02;;;;;;;17.73;92.39;98637.34;3896153;90;21154;-85
2022/06/07 23:25:05;;;;;;;24.95;20.23;;;;;;;17.65;92.10;98635.19;4026583;87;21019;-85
2022/06/07 23:31:06;;;;;;;29.67;23.05;;;;;;;17.61;92.68;98632.50;4040175;87;21050;-85
2022/06/07 23:37:12;;;;;;;26.20;19.67;;;;;;;17.55;92.78;98629.28;4042668;87;21154;-85
2022/06/07 23:43:13;;;;;;;27.77;20.43;;;;;;;17.54;93.22;98617.42;4042034;87;21087;-85
2022/06/07 23:49:17;;;;;;;29.67;21.37;;;;;;;17.56;93.39;98594.85;4035915;87;22918;-85
